sensor_id;sensor_type;location;lat;lon;timestamp;pressure;altitude;pressure_sealevel;temperature;humidity
51999;BME280;38015;50.924;11.598;2023-02-18T00:01:14;99850.77;;;22.10;30.22
51999;BME280;38015;50.924;11.598;2023-02-18T00:03:44;99850.29;;;21.94;30.50
51999;BME280;38015;50.924;11.598;2023-02-18T00:06:18;99849.75;;;21.69;30.94
51999;BME280;38015;50.924;11.598;2023-02-18T00:08:45;99845.80;;;21.91;30.49
51999;BME280;38015;50.924;11.598;2023-02-18T00:11:16;99848.70;;;22.05;30.26
51999;BME280;38015;50.924;11.598;2023-02-18T00:13:50;99849.53;;;22.01;30.30
51999;BME280;38015;50.924;11.598;2023-02-18T00:16:16;99843.23;;;21.77;30.76
51999;BME280;38015;50.924;11.598;2023-02-18T00:18:46;99836.11;;;21.80;30.73
51999;BME280;38015;50.924;11.598;2023-02-18T00:21:17;99839.18;;;21.87;30.62
51999;BME280;38015;50.924;11.598;2023-02-18T00:23:47;99839.34;;;21.85;30.65
51999;BME280;38015;50.924;11.598;2023-02-18T00:26:19;99836.94;;;21.78;30.78
51999;BME280;38015;50.924;11.598;2023-02-18T00:28:48;99843.70;;;22.04;30.30
51999;BME280;38015;50.924;11.598;2023-02-18T00:31:21;99842.53;;;21.94;30.50
51999;BME280;38015;50.924;11.598;2023-02-18T00:33:49;99843.88;;;21.93;30.54
51999;BME280;38015;50.924;11.598;2023-02-18T00:36:21;99847.93;;;22.04;30.33
51999;BME280;38015;50.924;11.598;2023-02-18T00:38:51;99845.20;;;22.10;30.21
51999;BME280;38015;50.924;11.598;2023-02-18T00:41:22;99843.54;;;21.91;30.58
51999;BME280;38015;50.924;11.598;2023-02-18T00:43:51;99843.82;;;21.99;30.45
51999;BME280;38015;50.924;11.598;2023-02-18T00:46:22;99843.20;;;21.95;30.53
51999;BME280;38015;50.924;11.598;2023-02-18T00:48:52;99856.30;;;22.04;30.33
51999;BME280;38015;50.924;11.598;2023-02-18T00:51:23;99850.69;;;21.97;30.49
51999;BME280;38015;50.924;11.598;2023-02-18T00:53:53;99851.33;;;21.97;30.50
51999;BME280;38015;50.924;11.598;2023-02-18T00:56:23;99853.36;;;21.96;30.49
51999;BME280;38015;50.924;11.598;2023-02-18T00:58:54;99856.35;;;22.10;30.21
51999;BME280;38015;50.924;11.598;2023-02-18T01:01:24;99848.91;;;21.89;30.60
51999;BME280;38015;50.924;11.598;2023-02-18T01:03:55;99850.20;;;21.98;30.41
51999;BME280;38015;50.924;11.598;2023-02-18T01:06:25;99849.96;;;21.89;30.55
51999;BME280;38015;50.924;11.598;2023-02-18T01:08:55;99847.31;;;21.97;30.43
51999;BME280;38015;50.924;11.598;2023-02-18T01:11:26;99862.25;;;21.96;30.42
51999;BME280;38015;50.924;11.598;2023-02-18T01:13:57;99861.74;;;22.05;30.24
51999;BME280;38015;50.924;11.598;2023-02-18T01:16:29;99857.59;;;21.95;30.41
51999;BME280;38015;50.924;11.598;2023-02-18T01:18:57;99851.64;;;21.95;30.38
51999;BME280;38015;50.924;11.598;2023-02-18T01:21:29;99846.48;;;22.12;30.06
51999;BME280;38015;50.924;11.598;2023-02-18T01:23:58;99845.71;;;22.08;30.15
51999;BME280;38015;50.924;11.598;2023-02-18T01:26:29;99851.11;;;21.91;30.42
51999;BME280;38015;50.924;11.598;2023-02-18T01:28:59;99849.27;;;21.86;30.53
51999;BME280;38015;50.924;11.598;2023-02-18T01:31:30;99849.43;;;22.00;30.28
51999;BME280;38015;50.924;11.598;2023-02-18T01:34:00;99849.55;;;22.06;30.15
51999;BME280;38015;50.924;11.598;2023-02-18T01:36:31;99844.73;;;22.15;29.99
51999;BME280;38015;50.924;11.598;2023-02-18T01:39:01;99850.01;;;22.05;30.17
51999;BME280;38015;50.924;11.598;2023-02-18T01:41:32;99849.97;;;22.21;29.87
51999;BME280;38015;50.924;11.598;2023-02-18T01:44:11;99846.91;;;22.29;29.72
51999;BME280;38015;50.924;11.598;2023-02-18T01:46:32;99840.71;;;22.32;29.66
51999;BME280;38015;50.924;11.598;2023-02-18T01:49:03;99837.68;;;22.32;29.64
51999;BME280;38015;50.924;11.598;2023-02-18T01:51:40;99843.27;;;22.41;29.47
51999;BME280;38015;50.924;11.598;2023-02-18T01:54:08;99850.66;;;22.43;29.43
51999;BME280;38015;50.924;11.598;2023-02-18T01:56:37;99849.16;;;22.48;29.33
51999;BME280;38015;50.924;11.598;2023-02-18T01:59:14;99846.67;;;22.49;29.33
51999;BME280;38015;50.924;11.598;2023-02-18T02:01:36;99854.81;;;22.47;29.35
51999;BME280;38015;50.924;11.598;2023-02-18T02:04:06;99852.18;;;22.32;29.60
51999;BME280;38015;50.924;11.598;2023-02-18T02:06:36;99855.83;;;22.39;29.33
51999;BME280;38015;50.924;11.598;2023-02-18T02:09:10;99859.39;;;22.44;29.23
51999;BME280;38015;50.924;11.598;2023-02-18T02:14:19;99864.45;;;22.40;29.39
51999;BME280;38015;50.924;11.598;2023-02-18T02:16:44;99864.02;;;22.40;29.31
51999;BME280;38015;50.924;11.598;2023-02-18T02:31:52;99849.48;;;22.32;29.41
51999;BME280;38015;50.924;11.598;2023-02-18T02:36:49;99854.10;;;22.45;29.22
51999;BME280;38015;50.924;11.598;2023-02-18T02:39:19;99855.31;;;22.29;29.53
51999;BME280;38015;50.924;11.598;2023-02-18T02:41:47;99854.04;;;22.30;29.53
51999;BME280;38015;50.924;11.598;2023-02-18T02:44:20;99857.74;;;22.38;29.39
51999;BME280;38015;50.924;11.598;2023-02-18T02:46:46;99852.66;;;22.41;29.35
51999;BME280;38015;50.924;11.598;2023-02-18T02:49:26;99850.84;;;22.35;29.45
51999;BME280;38015;50.924;11.598;2023-02-18T02:51:48;99837.28;;;22.41;29.35
51999;BME280;38015;50.924;11.598;2023-02-18T02:54:19;99830.31;;;22.37;29.42
51999;BME280;38015;50.924;11.598;2023-02-18T02:56:46;99831.01;;;22.39;29.41
51999;BME280;38015;50.924;11.598;2023-02-18T02:59:21;99829.89;;;22.28;29.61
51999;BME280;38015;50.924;11.598;2023-02-18T03:02:00;99822.78;;;22.31;29.53
51999;BME280;38015;50.924;11.598;2023-02-18T03:04:26;99821.07;;;22.43;29.28
51999;BME280;38015;50.924;11.598;2023-02-18T03:06:59;99826.25;;;22.43;29.27
51999;BME280;38015;50.924;11.598;2023-02-18T03:09:22;99826.57;;;22.50;29.14
51999;BME280;38015;50.924;11.598;2023-02-18T03:11:55;99821.72;;;22.44;29.24
51999;BME280;38015;50.924;11.598;2023-02-18T03:14:25;99817.25;;;22.47;29.15
51999;BME280;38015;50.924;11.598;2023-02-18T03:16:56;99812.57;;;22.38;29.36
51999;BME280;38015;50.924;11.598;2023-02-18T03:19:26;99812.09;;;22.42;29.25
51999;BME280;38015;50.924;11.598;2023-02-18T03:21:54;99804.66;;;22.43;29.17
51999;BME280;38015;50.924;11.598;2023-02-18T03:24:24;99810.55;;;22.19;29.60
51999;BME280;38015;50.924;11.598;2023-02-18T03:26:57;99813.44;;;22.36;29.23
51999;BME280;38015;50.924;11.598;2023-02-18T03:29:22;99811.51;;;22.34;29.38
51999;BME280;38015;50.924;11.598;2023-02-18T03:31:54;99816.12;;;22.37;29.29
51999;BME280;38015;50.924;11.598;2023-02-18T03:34:27;99815.05;;;22.41;29.26
51999;BME280;38015;50.924;11.598;2023-02-18T03:36:54;99812.31;;;22.37;29.28
51999;BME280;38015;50.924;11.598;2023-02-18T03:39:25;99816.12;;;22.46;29.14
51999;BME280;38015;50.924;11.598;2023-02-18T03:41:54;99804.39;;;22.38;29.28
51999;BME280;38015;50.924;11.598;2023-02-18T03:44:25;99802.29;;;22.40;29.25
51999;BME280;38015;50.924;11.598;2023-02-18T03:46:56;99807.94;;;22.42;29.19
51999;BME280;38015;50.924;11.598;2023-02-18T03:49:25;99805.51;;;22.42;29.17
51999;BME280;38015;50.924;11.598;2023-02-18T03:51:56;99806.88;;;22.38;29.24
51999;BME280;38015;50.924;11.598;2023-02-18T03:54:26;99807.33;;;22.44;29.10
51999;BME280;38015;50.924;11.598;2023-02-18T03:56:57;99798.36;;;22.42;29.18
51999;BME280;38015;50.924;11.598;2023-02-18T03:59:27;99793.99;;;22.25;29.49
51999;BME280;38015;50.924;11.598;2023-02-18T04:01:57;99787.52;;;22.41;29.23
51999;BME280;38015;50.924;11.598;2023-02-18T04:04:30;99788.11;;;22.44;29.20
51999;BME280;38015;50.924;11.598;2023-02-18T04:06:58;99787.56;;;22.36;29.33
51999;BME280;38015;50.924;11.598;2023-02-18T04:09:29;99785.28;;;22.22;29.59
51999;BME280;38015;50.924;11.598;2023-02-18T04:11:59;99780.19;;;22.39;29.30
51999;BME280;38015;50.924;11.598;2023-02-18T04:14:30;99778.73;;;22.34;29.40
51999;BME280;38015;50.924;11.598;2023-02-18T04:17:00;99781.43;;;22.46;29.20
51999;BME280;38015;50.924;11.598;2023-02-18T04:19:31;99781.27;;;22.17;29.69
51999;BME280;38015;50.924;11.598;2023-02-18T04:22:02;99769.10;;;22.45;29.23
51999;BME280;38015;50.924;11.598;2023-02-18T04:24:33;99770.97;;;22.39;29.36
51999;BME280;38015;50.924;11.598;2023-02-18T04:27:02;99774.00;;;22.35;29.43
51999;BME280;38015;50.924;11.598;2023-02-18T04:29:35;99772.94;;;22.38;29.40
51999;BME280;38015;50.924;11.598;2023-02-18T04:32:04;99774.28;;;22.39;29.42
51999;BME280;38015;50.924;11.598;2023-02-18T04:34:34;99766.13;;;22.39;29.41
51999;BME280;38015;50.924;11.598;2023-02-18T04:37:04;99751.86;;;22.43;29.35
51999;BME280;38015;50.924;11.598;2023-02-18T04:39:34;99756.63;;;22.34;29.50
51999;BME280;38015;50.924;11.598;2023-02-18T04:42:05;99755.89;;;22.49;29.24
51999;BME280;38015;50.924;11.598;2023-02-18T04:44:36;99755.39;;;22.45;29.30
51999;BME280;38015;50.924;11.598;2023-02-18T04:47:06;99746.90;;;22.41;29.41
51999;BME280;38015;50.924;11.598;2023-02-18T04:49:36;99738.77;;;22.41;29.44
51999;BME280;38015;50.924;11.598;2023-02-18T04:52:08;99736.70;;;22.40;29.44
51999;BME280;38015;50.924;11.598;2023-02-18T04:54:37;99735.71;;;22.45;29.33
51999;BME280;38015;50.924;11.598;2023-02-18T04:57:08;99737.41;;;22.43;29.40
51999;BME280;38015;50.924;11.598;2023-02-18T04:59:40;99737.59;;;22.55;29.17
51999;BME280;38015;50.924;11.598;2023-02-18T05:02:09;99738.72;;;22.38;29.49
51999;BME280;38015;50.924;11.598;2023-02-18T05:04:39;99739.54;;;22.38;29.49
51999;BME280;38015;50.924;11.598;2023-02-18T05:07:10;99726.47;;;22.32;29.66
51999;BME280;38015;50.924;11.598;2023-02-18T05:09:40;99717.90;;;22.26;29.79
51999;BME280;38015;50.924;11.598;2023-02-18T05:12:11;99717.18;;;22.33;29.66
51999;BME280;38015;50.924;11.598;2023-02-18T05:14:41;99712.90;;;22.28;29.76
51999;BME280;38015;50.924;11.598;2023-02-18T05:17:11;99708.18;;;22.40;29.57
51999;BME280;38015;50.924;11.598;2023-02-18T05:19:43;99711.91;;;22.29;29.78
51999;BME280;38015;50.924;11.598;2023-02-18T05:22:12;99709.49;;;22.40;29.61
51999;BME280;38015;50.924;11.598;2023-02-18T05:24:43;99700.03;;;22.41;29.60
51999;BME280;38015;50.924;11.598;2023-02-18T05:27:13;99703.87;;;22.28;29.82
51999;BME280;38015;50.924;11.598;2023-02-18T05:29:44;99702.73;;;22.33;29.78
51999;BME280;38015;50.924;11.598;2023-02-18T05:32:14;99698.22;;;22.34;29.75
51999;BME280;38015;50.924;11.598;2023-02-18T05:34:45;99693.19;;;22.43;29.59
51999;BME280;38015;50.924;11.598;2023-02-18T05:37:15;99694.63;;;22.40;29.65
51999;BME280;38015;50.924;11.598;2023-02-18T05:39:45;99693.90;;;22.42;29.61
51999;BME280;38015;50.924;11.598;2023-02-18T05:42:16;99695.25;;;22.38;29.69
51999;BME280;38015;50.924;11.598;2023-02-18T05:44:46;99681.62;;;22.30;29.84
51999;BME280;38015;50.924;11.598;2023-02-18T05:47:17;99678.76;;;22.26;29.91
51999;BME280;38015;50.924;11.598;2023-02-18T05:49:49;99669.78;;;22.28;29.88
51999;BME280;38015;50.924;11.598;2023-02-18T05:52:19;99666.39;;;22.15;30.11
51999;BME280;38015;50.924;11.598;2023-02-18T05:54:48;99661.22;;;22.29;29.87
51999;BME280;38015;50.924;11.598;2023-02-18T05:57:19;99654.96;;;22.15;30.11
51999;BME280;38015;50.924;11.598;2023-02-18T05:59:49;99653.19;;;22.04;30.32
51999;BME280;38015;50.924;11.598;2023-02-18T06:02:20;99649.16;;;22.05;30.32
51999;BME280;38015;50.924;11.598;2023-02-18T06:04:50;99648.56;;;21.99;30.46
51999;BME280;38015;50.924;11.598;2023-02-18T06:07:20;99645.23;;;21.94;30.56
51999;BME280;38015;50.924;11.598;2023-02-18T06:09:51;99645.23;;;22.11;30.22
51999;BME280;38015;50.924;11.598;2023-02-18T06:12:22;99647.02;;;21.99;30.45
51999;BME280;38015;50.924;11.598;2023-02-18T06:14:52;99640.72;;;21.87;30.67
51999;BME280;38015;50.924;11.598;2023-02-18T06:17:22;99635.63;;;22.06;30.33
51999;BME280;38015;50.924;11.598;2023-02-18T06:19:53;99633.41;;;21.90;30.60
51999;BME280;38015;50.924;11.598;2023-02-18T06:22:25;99626.17;;;21.95;30.52
51999;BME280;38015;50.924;11.598;2023-02-18T06:24:54;99620.77;;;21.93;30.57
51999;BME280;38015;50.924;11.598;2023-02-18T06:27:24;99620.01;;;22.12;30.22
51999;BME280;38015;50.924;11.598;2023-02-18T06:29:55;99611.54;;;21.94;30.57
51999;BME280;38015;50.924;11.598;2023-02-18T06:32:25;99607.87;;;21.91;30.62
51999;BME280;38015;50.924;11.598;2023-02-18T06:34:55;99599.28;;;21.99;30.47
51999;BME280;38015;50.924;11.598;2023-02-18T06:37:26;99599.92;;;21.98;30.48
51999;BME280;38015;50.924;11.598;2023-02-18T06:39:56;99602.36;;;21.97;30.49
51999;BME280;38015;50.924;11.598;2023-02-18T06:42:29;99597.14;;;21.99;30.44
51999;BME280;38015;50.924;11.598;2023-02-18T06:44:57;99594.55;;;22.25;29.95
51999;BME280;38015;50.924;11.598;2023-02-18T06:47:28;99589.41;;;22.15;30.08
51999;BME280;38015;50.924;11.598;2023-02-18T06:49:58;99595.49;;;22.06;30.27
51999;BME280;38015;50.924;11.598;2023-02-18T06:52:29;99596.04;;;21.93;30.53
51999;BME280;38015;50.924;11.598;2023-02-18T06:54:59;99591.41;;;22.17;30.07
51999;BME280;38015;50.924;11.598;2023-02-18T06:57:30;99600.38;;;22.08;30.24
51999;BME280;38015;50.924;11.598;2023-02-18T07:00:00;99593.96;;;22.23;29.96
51999;BME280;38015;50.924;11.598;2023-02-18T07:02:30;99588.94;;;21.97;30.45
51999;BME280;38015;50.924;11.598;2023-02-18T07:05:01;99577.93;;;22.21;29.97
51999;BME280;38015;50.924;11.598;2023-02-18T07:07:31;99577.40;;;22.10;30.16
51999;BME280;38015;50.924;11.598;2023-02-18T07:10:02;99564.43;;;22.17;30.03
51999;BME280;38015;50.924;11.598;2023-02-18T07:12:33;99568.36;;;22.14;30.10
51999;BME280;38015;50.924;11.598;2023-02-18T07:15:05;99562.29;;;22.24;29.90
51999;BME280;38015;50.924;11.598;2023-02-18T07:17:33;99561.39;;;22.14;30.08
51999;BME280;38015;50.924;11.598;2023-02-18T07:20:05;99555.17;;;22.01;30.32
51999;BME280;38015;50.924;11.598;2023-02-18T07:22:36;99560.38;;;22.06;30.21
51999;BME280;38015;50.924;11.598;2023-02-18T07:25:05;99558.63;;;22.11;30.14
51999;BME280;38015;50.924;11.598;2023-02-18T07:27:35;99547.40;;;22.00;30.32
51999;BME280;38015;50.924;11.598;2023-02-18T07:30:07;99538.87;;;22.18;29.98
51999;BME280;38015;50.924;11.598;2023-02-18T07:32:36;99539.64;;;22.19;29.96
51999;BME280;38015;50.924;11.598;2023-02-18T07:35:07;99526.03;;;22.09;30.13
51999;BME280;38015;50.924;11.598;2023-02-18T07:37:37;99530.03;;;22.18;30.01
51999;BME280;38015;50.924;11.598;2023-02-18T07:40:09;99520.35;;;22.07;30.19
51999;BME280;38015;50.924;11.598;2023-02-18T07:42:38;99521.14;;;22.01;30.32
51999;BME280;38015;50.924;11.598;2023-02-18T07:45:09;99530.28;;;21.90;30.54
51999;BME280;38015;50.924;11.598;2023-02-18T07:47:39;99530.79;;;21.92;30.52
51999;BME280;38015;50.924;11.598;2023-02-18T07:50:10;99528.91;;;22.12;30.13
51999;BME280;38015;50.924;11.598;2023-02-18T07:52:41;99528.52;;;21.82;30.64
51999;BME280;38015;50.924;11.598;2023-02-18T07:55:10;99515.97;;;21.80;30.74
51999;BME280;38015;50.924;11.598;2023-02-18T07:57:41;99519.28;;;21.92;30.52
51999;BME280;38015;50.924;11.598;2023-02-18T08:00:12;99523.53;;;21.64;31.03
51999;BME280;38015;50.924;11.598;2023-02-18T08:02:42;99525.72;;;21.87;30.66
51999;BME280;38015;50.924;11.598;2023-02-18T08:05:13;99524.80;;;21.83;30.71
51999;BME280;38015;50.924;11.598;2023-02-18T08:07:42;99522.97;;;21.84;30.71
51999;BME280;38015;50.924;11.598;2023-02-18T08:10:13;99526.88;;;21.93;30.52
51999;BME280;38015;50.924;11.598;2023-02-18T08:12:43;99520.22;;;21.91;30.58
51999;BME280;38015;50.924;11.598;2023-02-18T08:15:14;99511.50;;;22.08;30.22
51999;BME280;38015;50.924;11.598;2023-02-18T08:17:46;99517.53;;;21.86;30.64
51999;BME280;38015;50.924;11.598;2023-02-18T08:20:15;99516.52;;;21.83;30.71
51999;BME280;38015;50.924;11.598;2023-02-18T08:22:45;99519.11;;;21.66;31.02
51999;BME280;38015;50.924;11.598;2023-02-18T08:25:16;99518.97;;;21.86;30.67
51999;BME280;38015;50.924;11.598;2023-02-18T08:27:46;99512.54;;;21.93;30.52
51999;BME280;38015;50.924;11.598;2023-02-18T08:30:16;99514.63;;;21.93;30.54
51999;BME280;38015;50.924;11.598;2023-02-18T08:32:47;99507.95;;;21.76;30.86
51999;BME280;38015;50.924;11.598;2023-02-18T08:35:18;99506.37;;;21.78;30.82
51999;BME280;38015;50.924;11.598;2023-02-18T08:37:48;99504.35;;;21.96;30.46
51999;BME280;38015;50.924;11.598;2023-02-18T08:40:21;99498.54;;;21.76;30.87
51999;BME280;38015;50.924;11.598;2023-02-18T08:42:49;99497.10;;;21.78;30.85
51999;BME280;38015;50.924;11.598;2023-02-18T08:45:19;99496.44;;;21.90;30.61
51999;BME280;38015;50.924;11.598;2023-02-18T08:47:51;99503.17;;;21.71;30.97
51999;BME280;38015;50.924;11.598;2023-02-18T08:50:20;99495.35;;;21.81;30.79
51999;BME280;38015;50.924;11.598;2023-02-18T08:52:51;99493.93;;;22.06;30.32
51999;BME280;38015;50.924;11.598;2023-02-18T08:55:21;99485.29;;;21.80;30.80
51999;BME280;38015;50.924;11.598;2023-02-18T08:57:52;99480.12;;;21.79;30.79
51999;BME280;38015;50.924;11.598;2023-02-18T09:00:22;99467.46;;;21.75;30.87
51999;BME280;38015;50.924;11.598;2023-02-18T09:02:52;99459.03;;;21.83;30.77
51999;BME280;38015;50.924;11.598;2023-02-18T09:05:23;99457.60;;;21.80;30.80
51999;BME280;38015;50.924;11.598;2023-02-18T09:07:53;99454.26;;;21.94;30.55
51999;BME280;38015;50.924;11.598;2023-02-18T09:10:24;99439.95;;;21.96;30.52
51999;BME280;38015;50.924;11.598;2023-02-18T09:12:54;99433.04;;;21.89;30.65
51999;BME280;38015;50.924;11.598;2023-02-18T09:15:25;99429.63;;;21.65;31.13
51999;BME280;38015;50.924;11.598;2023-02-18T09:17:56;99422.19;;;21.68;31.11
51999;BME280;38015;50.924;11.598;2023-02-18T09:20:26;99431.53;;;21.86;30.80
51999;BME280;38015;50.924;11.598;2023-02-18T09:22:56;99427.14;;;21.96;30.58
51999;BME280;38015;50.924;11.598;2023-02-18T09:25:27;99426.03;;;21.93;30.61
51999;BME280;38015;50.924;11.598;2023-02-18T09:27:57;99423.72;;;21.85;30.77
51999;BME280;38015;50.924;11.598;2023-02-18T09:30:27;99430.05;;;21.85;30.82
51999;BME280;38015;50.924;11.598;2023-02-18T09:32:58;99447.29;;;21.88;30.75
51999;BME280;38015;50.924;11.598;2023-02-18T09:35:28;99442.25;;;21.84;30.72
51999;BME280;38015;50.924;11.598;2023-02-18T09:37:59;99458.33;;;21.92;30.63
51999;BME280;38015;50.924;11.598;2023-02-18T09:40:31;99442.97;;;22.15;30.15
51999;BME280;38015;50.924;11.598;2023-02-18T09:43:00;99440.35;;;22.03;30.32
51999;BME280;38015;50.924;11.598;2023-02-18T09:45:30;99437.70;;;21.73;30.91
51999;BME280;38015;50.924;11.598;2023-02-18T09:48:01;99439.08;;;21.96;30.37
51999;BME280;38015;50.924;11.598;2023-02-18T09:50:32;99435.27;;;21.99;30.41
51999;BME280;38015;50.924;11.598;2023-02-18T09:53:03;99434.70;;;21.99;30.44
51999;BME280;38015;50.924;11.598;2023-02-18T09:55:35;99424.59;;;21.90;30.52
51999;BME280;38015;50.924;11.598;2023-02-18T09:58:07;99421.76;;;21.82;30.71
51999;BME280;38015;50.924;11.598;2023-02-18T10:00:36;99418.38;;;21.92;30.52
51999;BME280;38015;50.924;11.598;2023-02-18T10:03:10;99413.52;;;21.64;30.98
51999;BME280;38015;50.924;11.598;2023-02-18T10:05:35;99424.40;;;22.08;30.21
51999;BME280;38015;50.924;11.598;2023-02-18T10:08:06;99425.93;;;21.98;30.39
51999;BME280;38015;50.924;11.598;2023-02-18T10:10:39;99424.22;;;21.80;30.68
51999;BME280;38015;50.924;11.598;2023-02-18T10:13:13;99410.32;;;21.80;30.67
51999;BME280;38015;50.924;11.598;2023-02-18T10:15:36;99405.77;;;22.00;30.30
51999;BME280;38015;50.924;11.598;2023-02-18T10:18:20;99404.45;;;21.91;30.46
51999;BME280;38015;50.924;11.598;2023-02-18T10:20:37;99417.39;;;21.88;30.55
51999;BME280;38015;50.924;11.598;2023-02-18T10:23:09;99414.35;;;21.92;30.37
51999;BME280;38015;50.924;11.598;2023-02-18T10:25:42;99417.47;;;21.96;30.29
51999;BME280;38015;50.924;11.598;2023-02-18T10:28:09;99421.88;;;22.00;30.19
51999;BME280;38015;50.924;11.598;2023-02-18T10:30:42;99421.57;;;21.78;30.67
51999;BME280;38015;50.924;11.598;2023-02-18T10:33:20;99417.73;;;21.86;30.54
51999;BME280;38015;50.924;11.598;2023-02-18T10:35:44;99412.43;;;21.80;30.63
51999;BME280;38015;50.924;11.598;2023-02-18T10:38:15;99405.31;;;21.93;30.34
51999;BME280;38015;50.924;11.598;2023-02-18T10:40:50;99405.97;;;22.01;30.29
51999;BME280;38015;50.924;11.598;2023-02-18T10:43:18;99408.58;;;21.66;30.94
51999;BME280;38015;50.924;11.598;2023-02-18T10:45:44;99402.36;;;21.60;31.05
51999;BME280;38015;50.924;11.598;2023-02-18T10:48:26;99404.49;;;21.81;30.59
51999;BME280;38015;50.924;11.598;2023-02-18T10:50:44;99397.76;;;21.49;31.24
51999;BME280;38015;50.924;11.598;2023-02-18T10:53:17;99397.54;;;21.48;31.25
51999;BME280;38015;50.924;11.598;2023-02-18T10:55:45;99390.87;;;21.91;30.33
51999;BME280;38015;50.924;11.598;2023-02-18T10:58:25;99397.02;;;21.84;30.51
51999;BME280;38015;50.924;11.598;2023-02-18T11:00:44;99393.60;;;22.15;29.95
51999;BME280;38015;50.924;11.598;2023-02-18T11:03:16;99411.80;;;21.72;30.77
51999;BME280;38015;50.924;11.598;2023-02-18T11:05:47;99405.46;;;21.74;30.71
51999;BME280;38015;50.924;11.598;2023-02-18T11:08:18;99405.94;;;21.77;30.61
51999;BME280;38015;50.924;11.598;2023-02-18T11:10:48;99407.27;;;21.79;30.53
51999;BME280;38015;50.924;11.598;2023-02-18T11:13:23;99409.38;;;21.85;30.22
51999;BME280;38015;50.924;11.598;2023-02-18T11:15:54;99420.56;;;21.63;30.81
51999;BME280;38015;50.924;11.598;2023-02-18T11:20:54;99411.08;;;21.80;30.52
51999;BME280;38015;50.924;11.598;2023-02-18T11:23:20;99412.61;;;21.89;30.16
51999;BME280;38015;50.924;11.598;2023-02-18T11:25:55;99404.52;;;21.91;30.36
51999;BME280;38015;50.924;11.598;2023-02-18T11:28:28;99400.42;;;21.91;30.17
51999;BME280;38015;50.924;11.598;2023-02-18T11:30:54;99400.43;;;21.93;30.20
51999;BME280;38015;50.924;11.598;2023-02-18T11:33:22;99386.47;;;22.03;30.04
51999;BME280;38015;50.924;11.598;2023-02-18T11:35:52;99383.64;;;22.00;30.06
51999;BME280;38015;50.924;11.598;2023-02-18T11:38:24;99373.00;;;21.98;30.11
51999;BME280;38015;50.924;11.598;2023-02-18T11:40:55;99381.78;;;21.52;30.96
51999;BME280;38015;50.924;11.598;2023-02-18T11:43:29;99371.21;;;22.00;29.74
51999;BME280;38015;50.924;11.598;2023-02-18T11:48:23;99379.30;;;22.12;29.81
51999;BME280;38015;50.924;11.598;2023-02-18T11:50:58;99369.66;;;22.02;29.98
51999;BME280;38015;50.924;11.598;2023-02-18T11:53:26;99354.46;;;21.97;30.06
51999;BME280;38015;50.924;11.598;2023-02-18T11:55:55;99349.55;;;22.14;29.62
51999;BME280;38015;50.924;11.598;2023-02-18T11:58:25;99356.36;;;21.94;29.88
51999;BME280;38015;50.924;11.598;2023-02-18T12:00:56;99335.40;;;22.11;29.64
51999;BME280;38015;50.924;11.598;2023-02-18T12:03:32;99342.74;;;21.97;29.77
51999;BME280;38015;50.924;11.598;2023-02-18T12:05:59;99343.78;;;22.06;29.82
51999;BME280;38015;50.924;11.598;2023-02-18T12:08:29;99352.03;;;21.98;30.05
51999;BME280;38015;50.924;11.598;2023-02-18T12:11:01;99349.38;;;21.99;30.00
51999;BME280;38015;50.924;11.598;2023-02-18T12:13:32;99352.34;;;21.79;30.38
51999;BME280;38015;50.924;11.598;2023-02-18T12:16:08;99357.18;;;21.77;30.35
51999;BME280;38015;50.924;11.598;2023-02-18T12:18:39;99340.44;;;21.70;30.49
51999;BME280;38015;50.924;11.598;2023-02-18T12:21:14;99346.04;;;21.79;30.26
51999;BME280;38015;50.924;11.598;2023-02-18T12:23:35;99335.71;;;21.79;30.29
51999;BME280;38015;50.924;11.598;2023-02-18T12:26:18;99341.86;;;22.01;29.86
51999;BME280;38015;50.924;11.598;2023-02-18T12:28:44;99343.05;;;21.85;30.19
51999;BME280;38015;50.924;11.598;2023-02-18T12:31:14;99348.72;;;21.82;30.25
51999;BME280;38015;50.924;11.598;2023-02-18T12:33:41;99353.14;;;21.75;30.38
51999;BME280;38015;50.924;11.598;2023-02-18T12:36:09;99353.15;;;21.79;30.21
51999;BME280;38015;50.924;11.598;2023-02-18T12:38:46;99350.53;;;21.74;30.29
51999;BME280;38015;50.924;11.598;2023-02-18T12:41:21;99337.11;;;21.93;29.99
51999;BME280;38015;50.924;11.598;2023-02-18T12:43:43;99337.67;;;21.99;29.74
51999;BME280;38015;50.924;11.598;2023-02-18T12:46:16;99332.79;;;21.86;29.85
51999;BME280;38015;50.924;11.598;2023-02-18T12:48:43;99335.87;;;21.82;30.14
51999;BME280;38015;50.924;11.598;2023-02-18T12:51:14;99332.49;;;21.64;30.51
51999;BME280;38015;50.924;11.598;2023-02-18T12:53:47;99339.08;;;21.91;30.03
51999;BME280;38015;50.924;11.598;2023-02-18T12:58:46;99342.90;;;21.83;30.12
51999;BME280;38015;50.924;11.598;2023-02-18T13:01:18;99348.18;;;21.81;30.19
51999;BME280;38015;50.924;11.598;2023-02-18T13:06:18;99351.29;;;21.57;30.59
51999;BME280;38015;50.924;11.598;2023-02-18T13:08:48;99342.77;;;21.67;30.41
51999;BME280;38015;50.924;11.598;2023-02-18T13:11:21;99360.95;;;21.75;30.21
51999;BME280;38015;50.924;11.598;2023-02-18T13:13:44;99359.48;;;22.02;29.61
51999;BME280;38015;50.924;11.598;2023-02-18T13:16:10;99368.80;;;21.83;29.96
51999;BME280;38015;50.924;11.598;2023-02-18T13:18:41;99374.83;;;21.89;29.92
51999;BME280;38015;50.924;11.598;2023-02-18T13:21:12;99377.82;;;21.97;29.59
51999;BME280;38015;50.924;11.598;2023-02-18T13:23:47;99374.64;;;21.81;29.97
51999;BME280;38015;50.924;11.598;2023-02-18T13:26:12;99374.52;;;21.95;29.53
51999;BME280;38015;50.924;11.598;2023-02-18T13:28:47;99382.18;;;21.93;29.43
51999;BME280;38015;50.924;11.598;2023-02-18T13:31:25;99385.84;;;21.99;29.61
51999;BME280;38015;50.924;11.598;2023-02-18T13:33:49;99395.31;;;21.96;29.70